createdAt,value
2022-08-21T00:02:28.004Z,1.88
2022-08-21T00:04:57.664Z,2.63
2022-08-21T00:07:25.848Z,3.13
2022-08-21T00:09:53.107Z,3.10
2022-08-21T00:12:20.605Z,3.42
2022-08-21T00:14:47.669Z,2.58
2022-08-21T00:17:14.484Z,2.95
2022-08-21T00:19:41.409Z,2.85
2022-08-21T00:22:08.545Z,2.90
2022-08-21T00:24:35.453Z,2.72
2022-08-21T00:27:02.283Z,2.55
2022-08-21T00:29:29.205Z,2.15
2022-08-21T00:31:56.048Z,2.50
2022-08-21T00:34:23.262Z,2.55
2022-08-21T00:36:50.178Z,2.08
2022-08-21T00:39:17.055Z,1.70
2022-08-21T00:41:44.501Z,1.45
2022-08-21T00:44:15.001Z,1.42
2022-08-21T00:46:43.648Z,1.00
2022-08-21T00:49:14.481Z,1.85
2022-08-21T00:51:54.162Z,1.63
2022-08-21T00:54:25.552Z,1.50
2022-08-21T00:57:00.857Z,0.85
2022-08-21T01:01:55.180Z,0.70
2022-08-21T01:04:23.264Z,1.13
2022-08-21T01:06:50.175Z,0.95
2022-08-21T01:09:17.060Z,1.20
2022-08-21T01:11:44.199Z,1.10
2022-08-21T01:14:13.879Z,1.30
2022-08-21T01:16:44.073Z,1.83
2022-08-21T01:19:12.206Z,1.25
2022-08-21T01:21:39.073Z,1.45
2022-08-21T01:24:06.663Z,0.90
2022-08-21T01:26:37.972Z,1.70
2022-08-21T01:29:23.915Z,1.65
2022-08-21T01:31:50.940Z,1.15
2022-08-21T01:34:19.036Z,1.30
2022-08-21T01:36:47.901Z,1.00
2022-08-21T01:39:15.905Z,1.30
2022-08-21T01:41:43.013Z,1.20
2022-08-21T01:44:09.876Z,1.25
2022-08-21T01:46:36.728Z,1.40
2022-08-21T01:49:05.123Z,1.27
2022-08-21T01:51:32.051Z,1.02
2022-08-21T01:53:59.060Z,1.10
2022-08-21T01:56:27.119Z,1.10
2022-08-21T01:58:53.937Z,1.98
2022-08-21T02:01:20.835Z,1.20
2022-08-21T02:03:47.778Z,1.90
2022-08-21T02:06:18.645Z,1.60
2022-08-21T02:08:46.605Z,1.55
2022-08-21T02:11:13.578Z,1.40
2022-08-21T02:13:40.486Z,1.15
2022-08-21T02:16:08.943Z,2.10
2022-08-21T02:18:36.441Z,1.48
2022-08-21T02:21:03.948Z,1.60
2022-08-21T02:23:30.966Z,1.10
2022-08-21T02:25:59.840Z,1.75
2022-08-21T02:28:27.886Z,1.48
2022-08-21T02:30:56.738Z,1.52
2022-08-21T02:33:23.945Z,1.63
2022-08-21T02:35:51.490Z,1.48
2022-08-21T02:38:21.520Z,1.98
2022-08-21T02:40:50.861Z,1.67
2022-08-21T02:43:19.605Z,1.40
2022-08-21T02:45:47.639Z,1.92
2022-08-21T02:48:19.073Z,1.60
2022-08-21T02:50:49.586Z,2.47
2022-08-21T02:53:17.732Z,1.42
2022-08-21T02:55:50.841Z,1.67
2022-08-21T02:58:35.626Z,1.80
2022-08-21T03:01:02.782Z,1.55
2022-08-21T03:03:30.167Z,2.00
2022-08-21T03:05:57.145Z,2.55
2022-08-21T03:08:27.464Z,2.03
2022-08-21T03:10:55.250Z,2.15
2022-08-21T03:13:22.640Z,1.95
2022-08-21T03:15:50.494Z,1.50
2022-08-21T03:18:18.240Z,1.75
2022-08-21T03:20:46.212Z,1.73
2022-08-21T03:23:18.440Z,1.67
2022-08-21T03:25:47.824Z,1.90
2022-08-21T03:28:19.021Z,1.65
2022-08-21T03:30:47.888Z,2.08
2022-08-21T03:33:15.833Z,2.42
2022-08-21T03:35:49.936Z,2.03
2022-08-21T03:38:16.777Z,1.58
2022-08-21T03:40:44.459Z,1.95
2022-08-21T03:43:11.837Z,2.28
2022-08-21T03:45:39.469Z,2.10
2022-08-21T03:48:07.686Z,2.20
2022-08-21T03:50:40.641Z,3.30
2022-08-21T03:53:17.149Z,1.80
2022-08-21T03:55:47.403Z,2.60
2022-08-21T03:58:17.746Z,2.50
2022-08-21T04:00:47.791Z,2.00
2022-08-21T04:03:14.745Z,2.50
2022-08-21T04:05:42.006Z,2.08
2022-08-21T04:08:08.870Z,2.67
2022-08-21T04:10:37.686Z,2.60
2022-08-21T04:13:06.004Z,2.78
2022-08-21T04:15:32.862Z,3.35
2022-08-21T04:18:00.009Z,2.63
2022-08-21T04:20:28.075Z,2.35
2022-08-21T04:22:54.938Z,3.42
2022-08-21T04:25:24.030Z,2.90
2022-08-21T04:27:52.084Z,2.63
2022-08-21T04:30:19.185Z,2.47
2022-08-21T04:32:48.278Z,2.67
2022-08-21T04:35:21.723Z,2.65
2022-08-21T04:37:48.935Z,3.75
2022-08-21T04:40:18.240Z,2.47
2022-08-21T04:43:06.685Z,2.83
2022-08-21T04:45:36.646Z,3.63
2022-08-21T04:48:07.862Z,2.92
2022-08-21T04:50:44.206Z,2.53
2022-08-21T04:53:16.404Z,2.95
2022-08-21T04:55:45.322Z,2.42
2022-08-21T04:58:15.712Z,3.08
2022-08-21T05:00:43.028Z,2.53
2022-08-21T05:03:12.285Z,2.67
2022-08-21T05:05:40.740Z,2.40
2022-08-21T05:08:10.890Z,2.75
2022-08-21T05:10:37.742Z,3.00
2022-08-21T05:13:06.387Z,2.45
2022-08-21T05:15:33.279Z,2.47
2022-08-21T05:18:01.260Z,2.70
2022-08-21T05:20:29.331Z,3.13
2022-08-21T05:22:56.509Z,2.78
2022-08-21T05:25:23.909Z,2.60
2022-08-21T05:27:52.119Z,2.83
2022-08-21T05:30:20.469Z,2.53
2022-08-21T05:32:48.709Z,2.28
2022-08-21T05:35:16.210Z,2.30
2022-08-21T05:37:43.138Z,2.80
2022-08-21T05:40:21.378Z,1.70
2022-08-21T05:42:54.385Z,3.25
2022-08-21T05:45:41.211Z,2.15
2022-08-21T05:48:22.069Z,1.65
2022-08-21T05:50:50.369Z,1.77
2022-08-21T05:53:19.193Z,2.70
2022-08-21T05:55:47.098Z,2.55
2022-08-21T05:58:19.638Z,2.03
2022-08-21T06:00:48.641Z,2.30
2022-08-21T06:03:24.399Z,2.10
2022-08-21T06:05:51.786Z,1.95
2022-08-21T06:08:19.942Z,1.92
2022-08-21T06:10:48.222Z,1.70
2022-08-21T06:13:17.431Z,1.88
2022-08-21T06:15:44.312Z,1.60
2022-08-21T06:18:11.731Z,1.95
2022-08-21T06:20:39.016Z,2.63
2022-08-21T06:23:05.932Z,1.80
2022-08-21T06:25:33.136Z,1.90
2022-08-21T06:28:10.869Z,1.98
2022-08-21T06:30:39.612Z,1.35
2022-08-21T06:33:07.983Z,1.65
2022-08-21T06:35:35.711Z,1.55
2022-08-21T06:38:03.059Z,1.80
2022-08-21T06:40:34.911Z,2.28
2022-08-21T06:43:14.950Z,1.58
2022-08-21T06:45:42.829Z,1.38
2022-08-21T06:48:09.929Z,1.52
2022-08-21T06:50:37.459Z,1.65
2022-08-21T06:53:13.329Z,1.70
2022-08-21T06:55:41.052Z,1.23
2022-08-21T06:58:08.674Z,1.25
2022-08-21T07:00:38.965Z,1.00
2022-08-21T07:03:05.944Z,1.08
2022-08-21T07:05:32.807Z,0.88
2022-08-21T07:08:00.116Z,0.40
2022-08-21T07:10:27.842Z,0.88
2022-08-21T07:13:00.894Z,1.02
2022-08-21T07:15:31.865Z,0.77
2022-08-21T07:18:00.028Z,0.73
2022-08-21T07:20:29.161Z,1.10
2022-08-21T07:22:58.472Z,1.63
2022-08-21T07:25:25.549Z,0.98
2022-08-21T07:27:52.443Z,0.82
2022-08-21T07:30:19.520Z,1.45
2022-08-21T07:32:46.448Z,0.85
2022-08-21T07:35:13.532Z,0.60
2022-08-21T07:37:40.506Z,0.70
2022-08-21T07:40:08.008Z,0.73
2022-08-21T07:42:34.939Z,1.45
2022-08-21T07:45:01.794Z,0.85
2022-08-21T07:47:41.794Z,1.02
2022-08-21T07:50:10.730Z,0.50
2022-08-21T07:52:38.000Z,0.47
2022-08-21T07:55:06.808Z,0.90
2022-08-21T07:57:34.479Z,0.55
2022-08-21T08:00:01.307Z,0.32
2022-08-21T08:02:30.673Z,0.95
2022-08-21T08:05:06.638Z,0.68
2022-08-21T08:07:33.487Z,0.50
2022-08-21T08:10:00.335Z,0.50
2022-08-21T08:12:30.277Z,0.50
2022-08-21T08:15:01.611Z,0.65
2022-08-21T08:17:28.712Z,1.17
2022-08-21T08:19:56.747Z,0.70
2022-08-21T08:22:24.945Z,0.38
2022-08-21T08:24:53.128Z,0.45
2022-08-21T08:27:21.344Z,0.70
2022-08-21T08:29:48.509Z,0.90
2022-08-21T08:32:15.720Z,1.02
2022-08-21T08:34:42.547Z,0.80
2022-08-21T08:37:11.043Z,0.68
2022-08-21T08:39:39.642Z,0.50
2022-08-21T08:42:33.968Z,0.57
2022-08-21T08:45:13.293Z,0.50
2022-08-21T08:47:46.292Z,0.55
2022-08-21T08:50:26.576Z,0.52
2022-08-21T08:53:04.320Z,0.70
2022-08-21T08:55:40.299Z,0.50
2022-08-21T08:58:08.084Z,0.73
2022-08-21T09:00:35.079Z,0.60
2022-08-21T09:03:04.151Z,0.65
2022-08-21T09:05:43.012Z,0.50
2022-08-21T09:09:03.981Z,1.05
2022-08-21T09:11:49.495Z,0.40
2022-08-21T09:14:45.616Z,1.00
2022-08-21T09:17:59.377Z,0.60
2022-08-21T09:20:28.696Z,0.43
2022-08-21T09:23:18.856Z,0.77
2022-08-21T09:26:13.414Z,1.40
2022-08-21T09:31:16.925Z,0.85
2022-08-21T09:33:43.955Z,0.60
2022-08-21T09:36:11.531Z,0.35
2022-08-21T09:38:38.865Z,1.13
2022-08-21T09:41:09.671Z,0.60
2022-08-21T09:43:37.884Z,0.73
2022-08-21T09:46:25.317Z,0.50
2022-08-21T09:48:54.988Z,0.50
2022-08-21T09:51:29.224Z,0.50
2022-08-21T09:54:11.174Z,0.55
2022-08-21T09:57:00.121Z,0.70
2022-08-21T09:59:36.475Z,0.45
2022-08-21T10:02:27.231Z,0.73
2022-08-21T10:05:00.490Z,0.60
2022-08-21T10:07:31.185Z,0.40
2022-08-21T10:10:02.484Z,0.93
2022-08-21T10:12:47.576Z,0.50
2022-08-21T10:15:39.477Z,0.35
2022-08-21T10:18:19.353Z,0.70
2022-08-21T10:21:11.900Z,0.80
2022-08-21T10:23:44.742Z,0.80
2022-08-21T10:26:33.056Z,0.50
2022-08-21T10:29:23.708Z,0.57
2022-08-21T10:32:04.736Z,0.60
2022-08-21T10:35:07.994Z,0.68
2022-08-21T10:37:53.724Z,0.50
2022-08-21T10:40:32.420Z,0.77
2022-08-21T10:43:06.393Z,0.68
2022-08-21T10:45:33.197Z,0.55
2022-08-21T10:48:09.044Z,0.80
2022-08-21T10:50:59.241Z,0.40
2022-08-21T10:53:36.213Z,0.63
2022-08-21T10:56:28.209Z,0.40
2022-08-21T10:59:27.248Z,0.95
2022-08-21T11:02:02.992Z,0.40
2022-08-21T11:04:47.017Z,0.88
2022-08-21T11:07:23.081Z,0.88
2022-08-21T11:09:55.172Z,0.82
2022-08-21T11:12:29.137Z,1.00
2022-08-21T11:15:03.735Z,0.52
2022-08-21T11:17:53.760Z,0.60
2022-08-21T11:20:34.683Z,0.65
2022-08-21T11:23:14.781Z,0.25
2022-08-21T11:25:48.015Z,0.40
2022-08-21T11:28:42.065Z,0.50
2022-08-21T11:31:25.123Z,0.45
2022-08-21T11:34:13.061Z,0.47
2022-08-21T11:36:56.214Z,0.43
2022-08-21T11:39:39.187Z,1.08
2022-08-21T11:42:15.049Z,0.60
2022-08-21T11:44:44.567Z,0.63
2022-08-21T11:47:25.428Z,0.70
2022-08-21T11:50:29.705Z,0.38
2022-08-21T11:53:13.457Z,0.22
2022-08-21T11:56:03.395Z,0.40
2022-08-21T11:58:41.387Z,0.63
2022-08-21T12:01:22.748Z,0.57
2022-08-21T12:03:58.500Z,0.60
2022-08-21T12:06:31.981Z,0.50
2022-08-21T12:09:02.661Z,0.45
2022-08-21T12:11:30.689Z,0.65
2022-08-21T12:14:14.712Z,0.43
2022-08-21T12:16:47.029Z,0.40
2022-08-21T12:19:21.083Z,0.77
2022-08-21T12:22:06.065Z,0.30
2022-08-21T12:24:49.733Z,0.60
2022-08-21T12:30:25.810Z,0.55
2022-08-21T12:33:21.077Z,0.30
2022-08-21T12:35:50.547Z,0.45
2022-08-21T12:38:29.168Z,0.47
2022-08-21T12:41:17.687Z,0.40
2022-08-21T12:43:51.937Z,0.80
2022-08-21T12:46:22.420Z,0.43
2022-08-21T12:48:57.685Z,0.50
2022-08-21T12:51:33.699Z,0.60
2022-08-21T12:54:01.203Z,0.50
2022-08-21T12:56:33.866Z,0.40
2022-08-21T12:59:07.604Z,0.40
2022-08-21T13:01:44.969Z,0.50
2022-08-21T13:04:16.381Z,0.70
2022-08-21T13:06:47.064Z,0.70
2022-08-21T13:09:17.766Z,0.90
2022-08-21T13:11:48.034Z,0.40
2022-08-21T13:14:45.254Z,0.55
2022-08-21T13:17:23.478Z,0.50
2022-08-21T13:20:04.069Z,0.30
2022-08-21T13:22:33.971Z,0.50
2022-08-21T13:25:06.615Z,0.85
2022-08-21T13:27:33.789Z,0.32
2022-08-21T13:30:21.721Z,0.55
2022-08-21T13:32:56.510Z,0.80
2022-08-21T13:35:32.604Z,0.35
2022-08-21T13:38:00.955Z,0.60
2022-08-21T13:41:01.246Z,0.73
2022-08-21T13:43:32.346Z,1.02
2022-08-21T13:46:00.825Z,0.50
2022-08-21T13:48:34.018Z,0.85
2022-08-21T13:51:02.028Z,0.40
2022-08-21T13:53:52.208Z,0.80
2022-08-21T13:56:33.994Z,0.63
2022-08-21T13:59:02.613Z,0.70
2022-08-21T14:01:41.313Z,0.93
2022-08-21T14:04:25.448Z,0.68
2022-08-21T14:06:53.387Z,0.57
2022-08-21T14:09:36.416Z,0.50
2022-08-21T14:12:23.665Z,0.50
2022-08-21T14:14:52.374Z,0.57
2022-08-21T14:17:35.029Z,0.60
2022-08-21T14:20:04.631Z,0.70
2022-08-21T14:22:44.380Z,0.60
2022-08-21T14:25:20.454Z,0.50
2022-08-21T14:27:57.932Z,0.60
2022-08-21T14:30:37.078Z,0.70
2022-08-21T14:33:05.804Z,0.65
2022-08-21T14:35:32.654Z,0.60
2022-08-21T14:37:59.568Z,0.50
2022-08-21T14:40:26.985Z,0.30
2022-08-21T14:42:55.181Z,0.80
2022-08-21T14:45:32.338Z,0.68
2022-08-21T14:48:00.218Z,0.88
2022-08-21T14:50:28.087Z,0.63
2022-08-21T14:52:55.590Z,0.73
2022-08-21T14:55:22.873Z,0.52
2022-08-21T14:57:52.076Z,0.50
2022-08-21T15:00:27.086Z,0.60
2022-08-21T15:03:03.864Z,0.50
2022-08-21T15:05:33.803Z,0.65
2022-08-21T15:08:01.532Z,0.40
2022-08-21T15:10:30.511Z,0.40
2022-08-21T15:12:57.411Z,0.63
2022-08-21T15:15:24.351Z,0.60
2022-08-21T15:17:51.141Z,0.70
2022-08-21T15:20:18.083Z,0.63
2022-08-21T15:22:47.760Z,0.57
2022-08-21T15:25:25.078Z,0.75
2022-08-21T15:27:52.179Z,0.70
2022-08-21T15:30:19.239Z,0.55
2022-08-21T15:32:46.182Z,0.68
2022-08-21T15:35:13.114Z,0.70
2022-08-21T15:37:39.980Z,0.28
2022-08-21T15:40:08.207Z,0.32
2022-08-21T15:42:35.447Z,0.73
2022-08-21T15:45:06.302Z,0.70
2022-08-21T15:47:36.667Z,0.63
2022-08-21T15:50:08.024Z,0.95
2022-08-21T15:52:35.253Z,0.50
2022-08-21T15:55:02.187Z,0.60
2022-08-21T15:57:29.200Z,0.50
2022-08-21T15:59:59.260Z,0.57
2022-08-21T16:02:29.901Z,0.90
2022-08-21T16:04:58.082Z,0.60
2022-08-21T16:07:25.737Z,0.40
2022-08-21T16:09:52.688Z,0.65
2022-08-21T16:12:31.966Z,0.50
2022-08-21T16:15:00.446Z,0.93
2022-08-21T16:17:35.584Z,0.60
2022-08-21T16:20:06.871Z,0.40
2022-08-21T16:22:41.309Z,0.55
2022-08-21T16:25:12.199Z,0.50
2022-08-21T16:27:40.517Z,0.80
2022-08-21T16:30:07.863Z,0.68
2022-08-21T16:32:35.470Z,0.50
2022-08-21T16:35:04.180Z,0.77
2022-08-21T16:37:32.562Z,0.47
2022-08-21T16:39:59.563Z,0.70
2022-08-21T16:42:27.070Z,0.40
2022-08-21T16:44:55.309Z,0.50
2022-08-21T16:47:27.289Z,0.38
2022-08-21T16:49:54.960Z,0.88
2022-08-21T16:52:21.810Z,0.73
2022-08-21T16:54:48.620Z,0.60
2022-08-21T16:57:15.717Z,0.90
2022-08-21T16:59:42.745Z,0.55
2022-08-21T17:02:35.212Z,0.88
2022-08-21T17:05:02.834Z,0.93
2022-08-21T17:07:33.069Z,0.63
2022-08-21T17:10:02.046Z,0.73
2022-08-21T17:12:29.286Z,0.60
2022-08-21T17:15:01.538Z,0.60
2022-08-21T17:17:28.484Z,0.63
2022-08-21T17:19:55.311Z,0.50
2022-08-21T17:22:22.187Z,0.60
2022-08-21T17:24:49.033Z,0.47
2022-08-21T17:27:26.848Z,0.77
2022-08-21T17:29:55.696Z,0.70
2022-08-21T17:32:22.707Z,0.68
2022-08-21T17:34:49.549Z,0.70
2022-08-21T17:37:16.620Z,0.45
2022-08-21T17:39:43.685Z,0.82
2022-08-21T17:42:13.590Z,0.43
2022-08-21T17:44:46.128Z,0.52
2022-08-21T17:47:14.418Z,0.90
2022-08-21T17:49:41.930Z,0.50
2022-08-21T17:52:08.949Z,0.82
2022-08-21T17:54:36.889Z,0.50
2022-08-21T17:57:04.669Z,1.02
2022-08-21T17:59:32.319Z,1.00
2022-08-21T18:02:01.672Z,0.82
2022-08-21T18:04:30.188Z,0.35
2022-08-21T18:06:57.573Z,1.77
2022-08-21T18:09:28.101Z,0.43
2022-08-21T18:11:57.337Z,0.40
2022-08-21T18:14:29.357Z,0.30
2022-08-21T18:16:56.765Z,0.68
2022-08-21T18:19:26.137Z,0.65
2022-08-21T18:21:54.436Z,0.47
2022-08-21T18:24:22.581Z,0.50
2022-08-21T18:26:51.040Z,0.40
2022-08-21T18:29:19.980Z,0.40
2022-08-21T18:31:47.794Z,0.38
2022-08-21T18:34:29.240Z,0.63
2022-08-21T18:36:57.231Z,0.35
2022-08-21T18:39:36.349Z,0.30
2022-08-21T18:42:08.774Z,0.70
2022-08-21T18:44:36.263Z,0.70
2022-08-21T18:47:07.437Z,0.57
2022-08-21T18:49:34.598Z,0.52
2022-08-21T18:52:01.628Z,0.40
2022-08-21T18:54:30.690Z,0.52
2022-08-21T18:56:57.886Z,0.98
2022-08-21T18:59:28.384Z,0.40
2022-08-21T19:01:55.871Z,0.52
2022-08-21T19:07:10.861Z,0.85
2022-08-21T19:09:37.709Z,0.50
2022-08-21T19:12:05.265Z,0.50
2022-08-21T19:14:33.224Z,0.50
2022-08-21T19:17:00.462Z,0.82
2022-08-21T19:19:34.409Z,0.70
2022-08-21T19:22:01.869Z,0.47
2022-08-21T19:24:29.626Z,0.40
2022-08-21T19:26:58.504Z,1.08
2022-08-21T19:29:34.506Z,0.70
2022-08-21T19:32:06.336Z,0.82
2022-08-21T19:34:36.050Z,0.60
2022-08-21T19:37:03.749Z,0.50
2022-08-21T19:39:38.954Z,0.63
2022-08-21T19:42:10.251Z,0.70
2022-08-21T19:44:39.618Z,0.82
2022-08-21T19:47:13.636Z,1.10
2022-08-21T19:49:54.069Z,0.65
2022-08-21T19:52:22.383Z,0.80
2022-08-21T19:54:49.411Z,0.85
2022-08-21T19:57:17.394Z,0.73
2022-08-21T19:59:44.796Z,0.70
2022-08-21T20:02:13.905Z,0.70
2022-08-21T20:04:53.916Z,0.75
2022-08-21T20:07:26.789Z,0.40
2022-08-21T20:09:54.820Z,0.40
2022-08-21T20:12:22.839Z,0.60
2022-08-21T20:14:50.752Z,0.52
2022-08-21T20:17:19.762Z,0.55
2022-08-21T20:19:51.265Z,0.73
2022-08-21T20:22:21.598Z,0.77
2022-08-21T20:24:50.852Z,0.75
2022-08-21T20:27:28.297Z,0.70
2022-08-21T20:29:55.678Z,0.77
2022-08-21T20:32:22.721Z,0.82
2022-08-21T20:34:52.084Z,0.88
2022-08-21T20:37:38.055Z,0.57
2022-08-21T20:40:11.143Z,0.60
2022-08-21T20:42:47.370Z,0.60
2022-08-21T20:45:24.186Z,0.70
2022-08-21T20:47:54.167Z,0.80
2022-08-21T20:50:25.653Z,0.73
2022-08-21T20:53:00.633Z,1.02
2022-08-21T20:55:29.714Z,0.57
2022-08-21T20:57:59.742Z,0.50
2022-08-21T21:00:29.676Z,0.95
2022-08-21T21:03:06.266Z,1.02
2022-08-21T21:06:06.894Z,1.02
2022-08-21T21:08:46.870Z,0.63
2022-08-21T21:11:28.424Z,0.75
2022-08-21T21:14:07.527Z,0.95
2022-08-21T21:16:50.825Z,0.65
2022-08-21T21:19:21.772Z,0.90
2022-08-21T21:21:58.542Z,0.73
2022-08-21T21:24:43.045Z,1.05
2022-08-21T21:30:06.744Z,0.77
2022-08-21T21:32:39.445Z,0.65
2022-08-21T21:35:07.831Z,1.00
2022-08-21T21:37:45.490Z,1.40
2022-08-21T21:40:57.330Z,1.10
2022-08-21T21:43:36.402Z,0.90
2022-08-21T21:46:23.834Z,1.20
2022-08-21T21:49:13.241Z,1.10
2022-08-21T21:51:40.895Z,0.82
2022-08-21T21:54:26.514Z,0.80
2022-08-21T21:57:14.812Z,0.77
2022-08-21T22:00:01.087Z,0.70
2022-08-21T22:02:42.355Z,0.82
2022-08-21T22:05:49.027Z,0.90
2022-08-21T22:08:30.232Z,0.80
2022-08-21T22:11:08.848Z,0.65
2022-08-21T22:14:08.526Z,1.17
2022-08-21T22:16:36.391Z,1.10
2022-08-21T22:19:25.099Z,1.08
2022-08-21T22:22:09.167Z,0.63
2022-08-21T22:24:42.689Z,1.02
2022-08-21T22:27:23.446Z,0.40
2022-08-21T22:29:54.664Z,0.73
2022-08-21T22:32:39.987Z,1.63
2022-08-21T22:35:20.645Z,1.02
2022-08-21T22:37:54.404Z,0.90
2022-08-21T22:40:27.567Z,1.02
2022-08-21T22:43:25.101Z,1.05
2022-08-21T22:46:04.123Z,0.80
2022-08-21T22:48:36.554Z,1.00
2022-08-21T22:51:14.559Z,0.70
2022-08-21T22:53:43.245Z,0.68
2022-08-21T22:56:38.501Z,0.98
2022-08-21T23:01:44.572Z,1.08
2022-08-21T23:04:20.224Z,0.90
2022-08-21T23:06:52.010Z,0.60
2022-08-21T23:09:33.328Z,0.68
2022-08-21T23:12:21.092Z,1.00
2022-08-21T23:14:55.059Z,0.70
2022-08-21T23:17:58.603Z,0.57
2022-08-21T23:20:40.143Z,1.23
2022-08-21T23:23:30.940Z,0.63
2022-08-21T23:26:08.161Z,0.60
2022-08-21T23:28:56.060Z,0.70
2022-08-21T23:31:51.025Z,0.70
2022-08-21T23:34:26.727Z,0.68
2022-08-21T23:37:53.034Z,0.70
2022-08-21T23:40:50.653Z,0.70
2022-08-21T23:43:38.673Z,0.73
2022-08-21T23:46:33.704Z,0.88
2022-08-21T23:49:13.389Z,1.20
2022-08-21T23:51:58.128Z,0.68
2022-08-21T23:54:35.090Z,0.63
2022-08-21T23:57:31.436Z,0.80
